ilmateenistus.ee keskkonnaagentuur.ee
EETN Tallinn
FTEO31 EETN 131700
TAF EETN 131700Z 1318/1418 25007KT 9999 SCT020 PROB40 TEMPO 1320/1402
    VRB02KT 2000 BR BKN005 BECMG 1402/1404 13010KT TEMPO 1402/1412 4000
    SHRA BKN010 SCT020CB TEMPO 1412/1418 03015G25KT 2000 SHRA BR BKN003
    BKN015CB=

METAR EETN 132050Z 20003KT 9999 FEW020 04/03 Q1013 NOSIG=
Tallinn
EEKA Kärdla
METAR EEKA 131950Z NIL=
Kärdla
EEKE Kuressaare
FCEO32 EETN 131400 AAA
TAF AMD EEKE 131800Z 1315/1321 CNL=

METAR EEKE 132050Z AUTO 00000KT 1100NDV R17/1200VP2000U R35/P2000N FG NSC 04/04 Q1013=
Kuressaare
EEPU Pärnu
METAR EEPU 131950Z NIL=
Pärnu
EETU Tartu
FCEO32 EETN 132000
TAF EETU 132000Z 1321/1403 VRB02KT 6000 SCT007 TEMPO 1321/1402 0500
    BCFG BKN002 BECMG 1402/1403 12008KT 5000 RA BKN020=

METAR EETU 132050Z 23005KT CAVOK 06/05 Q1014=
Tartu
EEEI Ämari
METAR EEEI 132050Z AUTO 00000KT 9999 FEW002 SCT038 03/03 Q1013=
Ämari